sensor_id;sensor_type;location;lat;lon;timestamp;P1;durP1;ratioP1;P2;durP2;ratioP2
53650;SDS011;39552;45.776;15.892;2022-12-24T00:05:47;13.23;;;8.18;;
53650;SDS011;39552;45.776;15.892;2022-12-24T00:15:34;16.45;;;11.82;;
53650;SDS011;39552;45.776;15.892;2022-12-24T00:18:49;17.00;;;11.75;;
53650;SDS011;39552;45.776;15.892;2022-12-24T00:24:42;19.40;;;13.40;;
53650;SDS011;39552;45.776;15.892;2022-12-24T00:27:10;19.52;;;13.52;;
53650;SDS011;39552;45.776;15.892;2022-12-24T00:29:44;19.48;;;13.30;;
53650;SDS011;39552;45.776;15.892;2022-12-24T00:32:22;23.45;;;14.02;;
53650;SDS011;39552;45.776;15.892;2022-12-24T00:35:20;19.50;;;13.70;;
53650;SDS011;39552;45.776;15.892;2022-12-24T00:37:53;18.52;;;13.70;;
53650;SDS011;39552;45.776;15.892;2022-12-24T00:40:46;22.70;;;14.13;;
53650;SDS011;39552;45.776;15.892;2022-12-24T00:43:47;19.17;;;12.70;;
53650;SDS011;39552;45.776;15.892;2022-12-24T00:46:37;16.88;;;11.25;;
53650;SDS011;39552;45.776;15.892;2022-12-24T01:00:46;13.30;;;9.60;;
53650;SDS011;39552;45.776;15.892;2022-12-24T01:03:36;12.05;;;9.00;;
53650;SDS011;39552;45.776;15.892;2022-12-24T01:06:42;11.95;;;8.88;;
53650;SDS011;39552;45.776;15.892;2022-12-24T01:09:23;12.18;;;9.00;;
53650;SDS011;39552;45.776;15.892;2022-12-24T01:12:02;16.63;;;8.30;;
53650;SDS011;39552;45.776;15.892;2022-12-24T01:14:35;10.80;;;8.27;;
53650;SDS011;39552;45.776;15.892;2022-12-24T01:17:05;12.57;;;8.80;;
53650;SDS011;39552;45.776;15.892;2022-12-24T01:19:58;10.35;;;7.65;;
53650;SDS011;39552;45.776;15.892;2022-12-24T01:22:25;11.02;;;8.38;;
53650;SDS011;39552;45.776;15.892;2022-12-24T01:25:01;10.88;;;8.45;;
53650;SDS011;39552;45.776;15.892;2022-12-24T01:27:37;9.93;;;7.88;;
53650;SDS011;39552;45.776;15.892;2022-12-24T01:30:07;10.20;;;7.90;;
53650;SDS011;39552;45.776;15.892;2022-12-24T01:32:51;7.95;;;7.13;;
53650;SDS011;39552;45.776;15.892;2022-12-24T01:35:25;7.53;;;6.80;;
53650;SDS011;39552;45.776;15.892;2022-12-24T01:38:00;7.75;;;5.45;;
53650;SDS011;39552;45.776;15.892;2022-12-24T01:40:30;5.90;;;5.28;;
53650;SDS011;39552;45.776;15.892;2022-12-24T01:43:14;5.95;;;4.88;;
53650;SDS011;39552;45.776;15.892;2022-12-24T01:45:54;6.68;;;4.55;;
53650;SDS011;39552;45.776;15.892;2022-12-24T01:48:33;7.25;;;4.63;;
53650;SDS011;39552;45.776;15.892;2022-12-24T01:51:05;7.28;;;4.70;;
53650;SDS011;39552;45.776;15.892;2022-12-24T01:53:40;7.57;;;4.43;;
53650;SDS011;39552;45.776;15.892;2022-12-24T01:56:14;4.22;;;3.83;;
53650;SDS011;39552;45.776;15.892;2022-12-24T01:58:51;4.28;;;3.70;;
53650;SDS011;39552;45.776;15.892;2022-12-24T02:01:29;4.97;;;3.80;;
53650;SDS011;39552;45.776;15.892;2022-12-24T02:03:56;3.00;;;2.72;;
53650;SDS011;39552;45.776;15.892;2022-12-24T02:06:27;2.83;;;2.38;;
53650;SDS011;39552;45.776;15.892;2022-12-24T02:09:00;2.50;;;2.30;;
53650;SDS011;39552;45.776;15.892;2022-12-24T02:11:30;2.50;;;2.30;;
53650;SDS011;39552;45.776;15.892;2022-12-24T02:14:07;3.20;;;2.22;;
53650;SDS011;39552;45.776;15.892;2022-12-24T02:16:41;2.58;;;1.85;;
53650;SDS011;39552;45.776;15.892;2022-12-24T02:19:29;2.20;;;1.90;;
53650;SDS011;39552;45.776;15.892;2022-12-24T02:22:22;1.80;;;1.70;;
53650;SDS011;39552;45.776;15.892;2022-12-24T02:25:03;1.73;;;1.63;;
53650;SDS011;39552;45.776;15.892;2022-12-24T02:28:15;4.15;;;1.40;;
53650;SDS011;39552;45.776;15.892;2022-12-24T02:31:07;1.30;;;1.30;;
53650;SDS011;39552;45.776;15.892;2022-12-24T02:33:54;1.73;;;1.63;;
53650;SDS011;39552;45.776;15.892;2022-12-24T02:36:30;1.60;;;1.50;;
53650;SDS011;39552;45.776;15.892;2022-12-24T02:39:07;2.65;;;1.70;;
53650;SDS011;39552;45.776;15.892;2022-12-24T02:41:42;1.30;;;1.30;;
53650;SDS011;39552;45.776;15.892;2022-12-24T02:44:19;1.58;;;1.48;;
53650;SDS011;39552;45.776;15.892;2022-12-24T02:47:05;1.23;;;1.23;;
53650;SDS011;39552;45.776;15.892;2022-12-24T02:49:36;2.17;;;1.50;;
53650;SDS011;39552;45.776;15.892;2022-12-24T02:54:59;4.85;;;4.00;;
53650;SDS011;39552;45.776;15.892;2022-12-24T02:57:40;6.82;;;5.30;;
53650;SDS011;39552;45.776;15.892;2022-12-24T03:00:42;7.35;;;5.80;;
53650;SDS011;39552;45.776;15.892;2022-12-24T03:03:38;8.48;;;5.43;;
53650;SDS011;39552;45.776;15.892;2022-12-24T03:06:26;5.25;;;4.75;;
53650;SDS011;39552;45.776;15.892;2022-12-24T03:09:05;5.05;;;4.55;;
53650;SDS011;39552;45.776;15.892;2022-12-24T03:11:47;4.75;;;4.30;;
53650;SDS011;39552;45.776;15.892;2022-12-24T03:14:20;4.32;;;3.90;;
53650;SDS011;39552;45.776;15.892;2022-12-24T03:16:57;4.93;;;4.43;;
53650;SDS011;39552;45.776;15.892;2022-12-24T03:19:33;3.78;;;3.40;;
53650;SDS011;39552;45.776;15.892;2022-12-24T03:22:11;2.90;;;2.70;;
53650;SDS011;39552;45.776;15.892;2022-12-24T03:24:47;2.63;;;2.42;;
53650;SDS011;39552;45.776;15.892;2022-12-24T03:27:21;2.30;;;2.17;;
53650;SDS011;39552;45.776;15.892;2022-12-24T03:30:00;1.75;;;1.65;;
53650;SDS011;39552;45.776;15.892;2022-12-24T03:32:41;2.03;;;1.80;;
53650;SDS011;39552;45.776;15.892;2022-12-24T03:35:27;1.65;;;1.55;;
53650;SDS011;39552;45.776;15.892;2022-12-24T03:38:03;1.30;;;1.30;;
53650;SDS011;39552;45.776;15.892;2022-12-24T03:40:41;1.53;;;1.43;;
53650;SDS011;39552;45.776;15.892;2022-12-24T03:43:13;2.13;;;1.92;;
53650;SDS011;39552;45.776;15.892;2022-12-24T03:45:47;2.00;;;1.90;;
53650;SDS011;39552;45.776;15.892;2022-12-24T03:48:20;2.03;;;1.92;;
53650;SDS011;39552;45.776;15.892;2022-12-24T03:50:59;3.13;;;2.47;;
53650;SDS011;39552;45.776;15.892;2022-12-24T03:53:34;2.70;;;2.50;;
53650;SDS011;39552;45.776;15.892;2022-12-24T03:56:11;2.67;;;2.40;;
53650;SDS011;39552;45.776;15.892;2022-12-24T03:58:43;2.00;;;1.80;;
53650;SDS011;39552;45.776;15.892;2022-12-24T04:01:13;1.60;;;1.50;;
53650;SDS011;39552;45.776;15.892;2022-12-24T04:03:53;1.50;;;1.40;;
53650;SDS011;39552;45.776;15.892;2022-12-24T04:06:33;1.70;;;1.38;;
53650;SDS011;39552;45.776;15.892;2022-12-24T04:09:08;1.20;;;1.20;;
53650;SDS011;39552;45.776;15.892;2022-12-24T04:11:42;1.20;;;1.20;;
53650;SDS011;39552;45.776;15.892;2022-12-24T04:14:11;1.20;;;1.20;;
53650;SDS011;39552;45.776;15.892;2022-12-24T04:16:41;1.30;;;1.20;;
53650;SDS011;39552;45.776;15.892;2022-12-24T04:19:28;1.20;;;1.10;;
53650;SDS011;39552;45.776;15.892;2022-12-24T04:22:14;1.95;;;1.00;;
53650;SDS011;39552;45.776;15.892;2022-12-24T04:24:43;1.05;;;1.05;;
53650;SDS011;39552;45.776;15.892;2022-12-24T04:27:27;1.20;;;1.10;;
53650;SDS011;39552;45.776;15.892;2022-12-24T04:30:01;1.10;;;1.10;;
53650;SDS011;39552;45.776;15.892;2022-12-24T04:32:36;1.30;;;1.20;;
53650;SDS011;39552;45.776;15.892;2022-12-24T04:35:16;1.13;;;1.10;;
53650;SDS011;39552;45.776;15.892;2022-12-24T04:37:49;1.15;;;1.08;;
53650;SDS011;39552;45.776;15.892;2022-12-24T04:40:18;1.00;;;1.00;;
53650;SDS011;39552;45.776;15.892;2022-12-24T04:42:48;1.55;;;1.30;;
53650;SDS011;39552;45.776;15.892;2022-12-24T04:45:24;1.17;;;1.13;;
53650;SDS011;39552;45.776;15.892;2022-12-24T04:47:57;1.30;;;1.20;;
53650;SDS011;39552;45.776;15.892;2022-12-24T04:50:38;1.30;;;1.20;;
53650;SDS011;39552;45.776;15.892;2022-12-24T04:53:21;1.15;;;1.15;;
53650;SDS011;39552;45.776;15.892;2022-12-24T04:55:56;1.10;;;1.10;;
53650;SDS011;39552;45.776;15.892;2022-12-24T04:58:25;1.25;;;1.17;;
53650;SDS011;39552;45.776;15.892;2022-12-24T05:00:53;1.10;;;1.10;;
53650;SDS011;39552;45.776;15.892;2022-12-24T05:03:20;1.10;;;1.10;;
53650;SDS011;39552;45.776;15.892;2022-12-24T05:05:48;1.02;;;1.02;;
53650;SDS011;39552;45.776;15.892;2022-12-24T05:08:19;1.10;;;1.10;;
53650;SDS011;39552;45.776;15.892;2022-12-24T05:10:53;1.17;;;1.17;;
53650;SDS011;39552;45.776;15.892;2022-12-24T05:13:26;1.23;;;1.23;;
53650;SDS011;39552;45.776;15.892;2022-12-24T05:16:12;1.10;;;1.10;;
53650;SDS011;39552;45.776;15.892;2022-12-24T05:18:40;1.00;;;1.00;;
53650;SDS011;39552;45.776;15.892;2022-12-24T05:21:12;1.00;;;1.00;;
53650;SDS011;39552;45.776;15.892;2022-12-24T05:23:42;1.05;;;1.05;;
53650;SDS011;39552;45.776;15.892;2022-12-24T05:26:13;1.10;;;1.10;;
53650;SDS011;39552;45.776;15.892;2022-12-24T05:28:46;1.20;;;1.10;;
53650;SDS011;39552;45.776;15.892;2022-12-24T05:31:16;1.10;;;1.10;;
53650;SDS011;39552;45.776;15.892;2022-12-24T05:33:51;1.80;;;1.15;;
53650;SDS011;39552;45.776;15.892;2022-12-24T05:36:23;1.05;;;1.02;;
53650;SDS011;39552;45.776;15.892;2022-12-24T05:38:55;1.27;;;1.17;;
53650;SDS011;39552;45.776;15.892;2022-12-24T05:41:27;1.02;;;1.02;;
53650;SDS011;39552;45.776;15.892;2022-12-24T05:43:56;1.30;;;1.20;;
53650;SDS011;39552;45.776;15.892;2022-12-24T05:46:26;1.30;;;1.13;;
53650;SDS011;39552;45.776;15.892;2022-12-24T05:48:56;1.05;;;1.05;;
53650;SDS011;39552;45.776;15.892;2022-12-24T05:51:26;1.50;;;1.40;;
53650;SDS011;39552;45.776;15.892;2022-12-24T05:54:11;0.93;;;0.93;;
53650;SDS011;39552;45.776;15.892;2022-12-24T05:56:42;1.13;;;1.13;;
53650;SDS011;39552;45.776;15.892;2022-12-24T05:59:14;1.10;;;1.10;;
53650;SDS011;39552;45.776;15.892;2022-12-24T06:04:11;1.27;;;1.00;;
53650;SDS011;39552;45.776;15.892;2022-12-24T06:06:41;1.15;;;1.10;;
53650;SDS011;39552;45.776;15.892;2022-12-24T06:09:11;1.20;;;1.20;;
53650;SDS011;39552;45.776;15.892;2022-12-24T06:11:41;2.00;;;1.90;;
53650;SDS011;39552;45.776;15.892;2022-12-24T06:14:12;3.45;;;2.33;;
53650;SDS011;39552;45.776;15.892;2022-12-24T06:16:41;2.80;;;2.60;;
53650;SDS011;39552;45.776;15.892;2022-12-24T06:19:15;3.40;;;3.10;;
53650;SDS011;39552;45.776;15.892;2022-12-24T06:21:45;2.90;;;2.70;;
53650;SDS011;39552;45.776;15.892;2022-12-24T06:24:30;3.83;;;3.53;;
53650;SDS011;39552;45.776;15.892;2022-12-24T06:27:04;4.40;;;4.00;;
53650;SDS011;39552;45.776;15.892;2022-12-24T06:29:37;4.97;;;4.50;;
53650;SDS011;39552;45.776;15.892;2022-12-24T06:32:08;4.18;;;3.88;;
53650;SDS011;39552;45.776;15.892;2022-12-24T06:34:41;3.92;;;3.20;;
53650;SDS011;39552;45.776;15.892;2022-12-24T07:18:02;2.20;;;2.10;;
53650;SDS011;39552;45.776;15.892;2022-12-24T08:34:38;4.05;;;3.75;;
53650;SDS011;39552;45.776;15.892;2022-12-24T08:44:46;2.20;;;2.10;;
53650;SDS011;39552;45.776;15.892;2022-12-24T08:47:29;1.50;;;1.40;;
53650;SDS011;39552;45.776;15.892;2022-12-24T08:52:52;2.08;;;1.50;;
53650;SDS011;39552;45.776;15.892;2022-12-24T08:55:27;1.50;;;1.40;;
53650;SDS011;39552;45.776;15.892;2022-12-24T08:58:20;1.30;;;1.20;;
53650;SDS011;39552;45.776;15.892;2022-12-24T09:01:11;1.20;;;1.20;;
53650;SDS011;39552;45.776;15.892;2022-12-24T09:03:57;1.20;;;1.20;;
53650;SDS011;39552;45.776;15.892;2022-12-24T09:06:54;1.65;;;1.55;;
53650;SDS011;39552;45.776;15.892;2022-12-24T09:10:08;1.50;;;1.40;;
53650;SDS011;39552;45.776;15.892;2022-12-24T09:13:02;1.40;;;1.40;;
53650;SDS011;39552;45.776;15.892;2022-12-24T09:22:44;1.40;;;1.30;;
53650;SDS011;39552;45.776;15.892;2022-12-24T16:58:56;17.67;;;13.70;;
53650;SDS011;39552;45.776;15.892;2022-12-24T17:01:32;16.52;;;13.65;;
53650;SDS011;39552;45.776;15.892;2022-12-24T17:04:59;15.20;;;13.55;;
53650;SDS011;39552;45.776;15.892;2022-12-24T17:07:49;16.95;;;14.23;;
53650;SDS011;39552;45.776;15.892;2022-12-24T19:41:16;19.10;;;15.98;;
53650;SDS011;39552;45.776;15.892;2022-12-24T19:47:58;18.63;;;15.40;;
53650;SDS011;39552;45.776;15.892;2022-12-24T19:51:18;19.98;;;17.15;;
53650;SDS011;39552;45.776;15.892;2022-12-24T19:54:29;24.27;;;18.98;;
53650;SDS011;39552;45.776;15.892;2022-12-24T19:57:26;25.30;;;20.27;;
53650;SDS011;39552;45.776;15.892;2022-12-24T20:00:15;25.27;;;20.38;;
53650;SDS011;39552;45.776;15.892;2022-12-24T20:02:52;25.17;;;20.10;;
53650;SDS011;39552;45.776;15.892;2022-12-24T20:09:09;25.73;;;19.95;;
53650;SDS011;39552;45.776;15.892;2022-12-24T20:12:39;25.45;;;19.48;;
53650;SDS011;39552;45.776;15.892;2022-12-24T20:22:30;21.75;;;18.70;;
53650;SDS011;39552;45.776;15.892;2022-12-24T20:25:54;22.10;;;17.45;;
53650;SDS011;39552;45.776;15.892;2022-12-24T20:29:31;17.05;;;15.15;;
53650;SDS011;39552;45.776;15.892;2022-12-24T20:56:09;31.08;;;21.17;;
